Pagrindinis puslapis
METAR-TAF:

METAR-TAF

Oro uostai :

Klirvoteris, Florida, Jungtinės Amerikos Valstijos

platuma: 27-58-36N, ilguma: 082-45-31W, Aukštis: 22 m

Dabartinis oras

Ataskaita buvo paskelbta 34 minutes, ne 08:15 UTC
Vėjas 13 kt iš Šiaurės/Šiaurės Vakarų su gūsio iki 19 kt
Temperatūra 13°C
Drėgmė 72%
Slėgis 1018 hPa
Matomumas: 16.1 km
Išsisklaidę debesys ne aukštis 2900 ft

METAR: KCLW 270815Z AUTO 34013G19KT 10SM SCT029 13/08 A3007 RMK AO2

Laikas: 03:49 (08:49 UTC)


TAF: trūkstamas

Orai ataskaitas ir orų prognozės (METAR, TAF).

turimą stotys yra geltonos ir raudonos taškus žemėlapyje.

Perkelti pele per norėdami pamatyti stoties vardą.

Tada spustelėkite, norėdami matyti oro stebėjimo ir prognozės.

Norėdami pakeisti žemėlapį: spustelėkite ant žalios mygtukų su juodo kryžiaus žemyn,; žalią mygtuką su brūkšneliu, jei norite nutolinti; arba žalių rodyklių gretimoms žemėlapius.


METAR-TAF: